sensor_id;sensor_type;location;lat;lon;timestamp;temperature;humidity
17182;DHT22;8706;48.254;16.422;2024-02-16T00:01:57;19.20;59.60
17182;DHT22;8706;48.254;16.422;2024-02-16T00:04:24;19.20;59.60
17182;DHT22;8706;48.254;16.422;2024-02-16T00:06:51;19.20;59.60
17182;DHT22;8706;48.254;16.422;2024-02-16T00:09:19;19.20;59.60
17182;DHT22;8706;48.254;16.422;2024-02-16T00:11:46;19.20;59.60
17182;DHT22;8706;48.254;16.422;2024-02-16T00:14:14;19.20;59.50
17182;DHT22;8706;48.254;16.422;2024-02-16T00:16:40;19.20;59.60
17182;DHT22;8706;48.254;16.422;2024-02-16T00:19:07;19.20;59.60
17182;DHT22;8706;48.254;16.422;2024-02-16T00:21:34;19.20;59.50
17182;DHT22;8706;48.254;16.422;2024-02-16T00:24:01;19.20;59.60
17182;DHT22;8706;48.254;16.422;2024-02-16T00:26:30;19.20;59.60
17182;DHT22;8706;48.254;16.422;2024-02-16T00:28:57;19.20;59.60
17182;DHT22;8706;48.254;16.422;2024-02-16T00:31:24;19.20;59.60
17182;DHT22;8706;48.254;16.422;2024-02-16T00:33:51;19.10;59.60
17182;DHT22;8706;48.254;16.422;2024-02-16T00:36:18;19.10;59.60
17182;DHT22;8706;48.254;16.422;2024-02-16T00:38:45;19.10;59.60
17182;DHT22;8706;48.254;16.422;2024-02-16T00:41:18;19.10;59.60
17182;DHT22;8706;48.254;16.422;2024-02-16T00:43:46;19.10;59.60
17182;DHT22;8706;48.254;16.422;2024-02-16T00:46:13;19.10;59.60
17182;DHT22;8706;48.254;16.422;2024-02-16T00:48:40;19.10;59.60
17182;DHT22;8706;48.254;16.422;2024-02-16T00:51:07;19.10;59.60
17182;DHT22;8706;48.254;16.422;2024-02-16T00:53:34;19.10;59.60
17182;DHT22;8706;48.254;16.422;2024-02-16T00:56:00;19.10;59.60
17182;DHT22;8706;48.254;16.422;2024-02-16T00:58:28;19.10;59.60
17182;DHT22;8706;48.254;16.422;2024-02-16T01:00:56;19.10;59.60
17182;DHT22;8706;48.254;16.422;2024-02-16T01:03:23;19.10;59.60
17182;DHT22;8706;48.254;16.422;2024-02-16T01:05:52;19.10;59.60
17182;DHT22;8706;48.254;16.422;2024-02-16T01:08:19;19.10;59.60
17182;DHT22;8706;48.254;16.422;2024-02-16T01:10:45;19.10;59.60
17182;DHT22;8706;48.254;16.422;2024-02-16T01:13:13;19.10;59.60
17182;DHT22;8706;48.254;16.422;2024-02-16T01:15:40;19.10;59.60
17182;DHT22;8706;48.254;16.422;2024-02-16T01:18:08;19.00;59.60
17182;DHT22;8706;48.254;16.422;2024-02-16T01:20:35;19.00;59.60
17182;DHT22;8706;48.254;16.422;2024-02-16T01:23:02;19.10;59.60
17182;DHT22;8706;48.254;16.422;2024-02-16T01:25:30;19.10;59.70
17182;DHT22;8706;48.254;16.422;2024-02-16T01:27:57;19.10;59.70
17182;DHT22;8706;48.254;16.422;2024-02-16T01:30:24;19.00;59.70
17182;DHT22;8706;48.254;16.422;2024-02-16T01:32:51;19.00;59.70
17182;DHT22;8706;48.254;16.422;2024-02-16T01:35:20;19.00;60.30
17182;DHT22;8706;48.254;16.422;2024-02-16T01:37:47;19.00;59.70
17182;DHT22;8706;48.254;16.422;2024-02-16T01:40:14;19.00;59.80
17182;DHT22;8706;48.254;16.422;2024-02-16T01:42:43;19.00;59.70
17182;DHT22;8706;48.254;16.422;2024-02-16T01:45:10;19.00;59.70
17182;DHT22;8706;48.254;16.422;2024-02-16T01:47:38;19.00;59.70
17182;DHT22;8706;48.254;16.422;2024-02-16T01:50:06;19.00;59.70
17182;DHT22;8706;48.254;16.422;2024-02-16T01:52:35;19.00;60.10
17182;DHT22;8706;48.254;16.422;2024-02-16T01:55:03;19.00;59.70
17182;DHT22;8706;48.254;16.422;2024-02-16T01:57:30;19.00;59.70
17182;DHT22;8706;48.254;16.422;2024-02-16T01:59:58;19.00;59.80
17182;DHT22;8706;48.254;16.422;2024-02-16T02:02:25;19.00;59.80
17182;DHT22;8706;48.254;16.422;2024-02-16T02:04:51;19.00;60.30
17182;DHT22;8706;48.254;16.422;2024-02-16T02:07:19;19.00;59.70
17182;DHT22;8706;48.254;16.422;2024-02-16T02:09:52;19.00;59.70
17182;DHT22;8706;48.254;16.422;2024-02-16T02:12:19;19.00;59.70
17182;DHT22;8706;48.254;16.422;2024-02-16T02:14:47;19.00;59.60
17182;DHT22;8706;48.254;16.422;2024-02-16T02:17:14;19.00;59.70
17182;DHT22;8706;48.254;16.422;2024-02-16T02:19:41;19.00;59.70
17182;DHT22;8706;48.254;16.422;2024-02-16T02:22:13;19.00;59.70
17182;DHT22;8706;48.254;16.422;2024-02-16T02:24:41;19.00;59.70
17182;DHT22;8706;48.254;16.422;2024-02-16T02:27:07;18.90;59.80
17182;DHT22;8706;48.254;16.422;2024-02-16T02:29:34;18.90;59.80
17182;DHT22;8706;48.254;16.422;2024-02-16T02:32:01;18.90;59.80
17182;DHT22;8706;48.254;16.422;2024-02-16T02:34:28;19.00;59.80
17182;DHT22;8706;48.254;16.422;2024-02-16T02:36:55;19.00;59.80
17182;DHT22;8706;48.254;16.422;2024-02-16T02:39:23;19.00;59.70
17182;DHT22;8706;48.254;16.422;2024-02-16T02:41:50;19.00;59.70
17182;DHT22;8706;48.254;16.422;2024-02-16T02:44:18;18.90;59.80
17182;DHT22;8706;48.254;16.422;2024-02-16T02:46:45;18.90;59.80
17182;DHT22;8706;48.254;16.422;2024-02-16T02:49:12;18.90;59.80
17182;DHT22;8706;48.254;16.422;2024-02-16T02:51:39;18.90;59.80
17182;DHT22;8706;48.254;16.422;2024-02-16T02:54:06;18.90;59.80
17182;DHT22;8706;48.254;16.422;2024-02-16T02:56:34;19.00;59.70
17182;DHT22;8706;48.254;16.422;2024-02-16T02:59:01;18.90;59.70
17182;DHT22;8706;48.254;16.422;2024-02-16T03:01:28;18.90;59.70
17182;DHT22;8706;48.254;16.422;2024-02-16T03:03:55;18.90;59.80
17182;DHT22;8706;48.254;16.422;2024-02-16T03:06:23;18.90;59.80
17182;DHT22;8706;48.254;16.422;2024-02-16T03:08:50;18.90;59.80
17182;DHT22;8706;48.254;16.422;2024-02-16T03:11:17;18.90;59.80
17182;DHT22;8706;48.254;16.422;2024-02-16T03:13:45;19.00;59.70
17182;DHT22;8706;48.254;16.422;2024-02-16T03:16:12;18.90;59.70
17182;DHT22;8706;48.254;16.422;2024-02-16T03:18:39;18.90;59.70
17182;DHT22;8706;48.254;16.422;2024-02-16T03:21:06;18.90;59.80
17182;DHT22;8706;48.254;16.422;2024-02-16T03:23:33;18.80;59.80
17182;DHT22;8706;48.254;16.422;2024-02-16T03:26:00;18.90;59.80
17182;DHT22;8706;48.254;16.422;2024-02-16T03:28:27;18.90;59.80
17182;DHT22;8706;48.254;16.422;2024-02-16T03:30:55;18.90;59.80
17182;DHT22;8706;48.254;16.422;2024-02-16T03:33:22;18.90;59.80
17182;DHT22;8706;48.254;16.422;2024-02-16T03:35:49;18.80;59.80
17182;DHT22;8706;48.254;16.422;2024-02-16T03:38:16;18.90;59.80
17182;DHT22;8706;48.254;16.422;2024-02-16T03:40:42;18.90;59.80
17182;DHT22;8706;48.254;16.422;2024-02-16T03:43:09;18.90;59.80
17182;DHT22;8706;48.254;16.422;2024-02-16T03:45:37;18.90;59.80
17182;DHT22;8706;48.254;16.422;2024-02-16T03:48:06;18.90;59.80
17182;DHT22;8706;48.254;16.422;2024-02-16T03:50:33;18.90;59.80
17182;DHT22;8706;48.254;16.422;2024-02-16T03:53:01;18.90;59.80
17182;DHT22;8706;48.254;16.422;2024-02-16T03:55:27;18.90;59.70
17182;DHT22;8706;48.254;16.422;2024-02-16T03:57:54;18.90;59.80
17182;DHT22;8706;48.254;16.422;2024-02-16T04:00:21;18.90;60.40
17182;DHT22;8706;48.254;16.422;2024-02-16T04:02:48;18.90;59.70
17182;DHT22;8706;48.254;16.422;2024-02-16T04:05:17;18.90;59.80
17182;DHT22;8706;48.254;16.422;2024-02-16T04:07:43;18.90;59.80
17182;DHT22;8706;48.254;16.422;2024-02-16T04:10:10;18.90;59.70
17182;DHT22;8706;48.254;16.422;2024-02-16T04:12:37;18.90;59.80
17182;DHT22;8706;48.254;16.422;2024-02-16T04:15:05;18.80;59.80
17182;DHT22;8706;48.254;16.422;2024-02-16T04:17:32;18.80;59.80
17182;DHT22;8706;48.254;16.422;2024-02-16T04:19:58;18.80;59.80
17182;DHT22;8706;48.254;16.422;2024-02-16T04:22:27;18.80;59.80
17182;DHT22;8706;48.254;16.422;2024-02-16T04:24:53;18.80;59.80
17182;DHT22;8706;48.254;16.422;2024-02-16T04:27:20;18.80;59.80
17182;DHT22;8706;48.254;16.422;2024-02-16T04:29:47;18.80;59.80
17182;DHT22;8706;48.254;16.422;2024-02-16T04:32:14;18.80;59.80
17182;DHT22;8706;48.254;16.422;2024-02-16T04:34:41;18.80;59.80
17182;DHT22;8706;48.254;16.422;2024-02-16T04:37:08;18.80;59.80
17182;DHT22;8706;48.254;16.422;2024-02-16T04:39:37;18.80;59.80
17182;DHT22;8706;48.254;16.422;2024-02-16T04:42:04;18.80;59.80
17182;DHT22;8706;48.254;16.422;2024-02-16T04:44:31;18.80;59.80
17182;DHT22;8706;48.254;16.422;2024-02-16T04:46:58;18.70;59.80
17182;DHT22;8706;48.254;16.422;2024-02-16T04:49:25;18.80;59.80
17182;DHT22;8706;48.254;16.422;2024-02-16T04:51:51;18.80;59.80
17182;DHT22;8706;48.254;16.422;2024-02-16T04:54:18;18.80;59.80
17182;DHT22;8706;48.254;16.422;2024-02-16T04:56:46;18.80;59.80
17182;DHT22;8706;48.254;16.422;2024-02-16T04:59:14;18.80;59.90
17182;DHT22;8706;48.254;16.422;2024-02-16T05:01:40;18.80;59.90
17182;DHT22;8706;48.254;16.422;2024-02-16T05:04:10;18.80;59.80
17182;DHT22;8706;48.254;16.422;2024-02-16T05:06:38;18.80;59.90
17182;DHT22;8706;48.254;16.422;2024-02-16T05:09:06;18.80;59.80
17182;DHT22;8706;48.254;16.422;2024-02-16T05:11:32;18.80;59.80
17182;DHT22;8706;48.254;16.422;2024-02-16T05:14:01;18.80;59.80
17182;DHT22;8706;48.254;16.422;2024-02-16T05:16:29;18.80;59.80
17182;DHT22;8706;48.254;16.422;2024-02-16T05:18:57;18.80;59.70
17182;DHT22;8706;48.254;16.422;2024-02-16T05:21:24;18.80;59.70
17182;DHT22;8706;48.254;16.422;2024-02-16T05:23:51;18.70;59.80
17182;DHT22;8706;48.254;16.422;2024-02-16T05:26:18;18.80;59.80
17182;DHT22;8706;48.254;16.422;2024-02-16T05:28:46;18.70;59.80
17182;DHT22;8706;48.254;16.422;2024-02-16T05:31:15;18.80;59.80
17182;DHT22;8706;48.254;16.422;2024-02-16T05:33:43;18.80;59.80
17182;DHT22;8706;48.254;16.422;2024-02-16T05:36:11;18.80;59.80
17182;DHT22;8706;48.254;16.422;2024-02-16T05:38:38;18.80;59.70
17182;DHT22;8706;48.254;16.422;2024-02-16T05:41:08;18.80;59.80
17182;DHT22;8706;48.254;16.422;2024-02-16T05:43:36;18.80;59.70
17182;DHT22;8706;48.254;16.422;2024-02-16T05:46:04;18.80;59.70
17182;DHT22;8706;48.254;16.422;2024-02-16T05:48:33;18.80;59.70
17182;DHT22;8706;48.254;16.422;2024-02-16T05:51:03;18.80;59.80
17182;DHT22;8706;48.254;16.422;2024-02-16T05:53:32;18.80;59.80
17182;DHT22;8706;48.254;16.422;2024-02-16T05:55:59;18.80;59.80
17182;DHT22;8706;48.254;16.422;2024-02-16T05:58:26;18.70;59.80
17182;DHT22;8706;48.254;16.422;2024-02-16T06:00:53;18.80;59.80
17182;DHT22;8706;48.254;16.422;2024-02-16T06:03:21;18.80;59.80
17182;DHT22;8706;48.254;16.422;2024-02-16T06:05:49;18.80;59.80
17182;DHT22;8706;48.254;16.422;2024-02-16T06:08:16;18.80;59.70
17182;DHT22;8706;48.254;16.422;2024-02-16T06:10:44;18.80;59.60
17182;DHT22;8706;48.254;16.422;2024-02-16T06:13:16;18.80;59.60
17182;DHT22;8706;48.254;16.422;2024-02-16T06:15:43;18.80;59.60
17182;DHT22;8706;48.254;16.422;2024-02-16T06:18:10;18.80;59.70
17182;DHT22;8706;48.254;16.422;2024-02-16T06:20:37;18.80;59.70
17182;DHT22;8706;48.254;16.422;2024-02-16T06:23:05;18.80;59.60
17182;DHT22;8706;48.254;16.422;2024-02-16T06:25:33;18.80;59.60
17182;DHT22;8706;48.254;16.422;2024-02-16T06:28:00;18.80;59.60
17182;DHT22;8706;48.254;16.422;2024-02-16T06:30:26;18.80;59.60
17182;DHT22;8706;48.254;16.422;2024-02-16T06:32:53;18.90;59.60
17182;DHT22;8706;48.254;16.422;2024-02-16T06:35:20;18.90;59.50
17182;DHT22;8706;48.254;16.422;2024-02-16T06:37:47;18.90;59.40
17182;DHT22;8706;48.254;16.422;2024-02-16T06:40:16;18.90;59.40
17182;DHT22;8706;48.254;16.422;2024-02-16T06:42:43;18.90;59.40
17182;DHT22;8706;48.254;16.422;2024-02-16T06:45:10;18.90;59.30
17182;DHT22;8706;48.254;16.422;2024-02-16T06:47:37;18.90;59.30
17182;DHT22;8706;48.254;16.422;2024-02-16T06:50:04;18.90;59.30
17182;DHT22;8706;48.254;16.422;2024-02-16T06:52:31;18.90;59.30
17182;DHT22;8706;48.254;16.422;2024-02-16T06:54:58;19.00;59.20
17182;DHT22;8706;48.254;16.422;2024-02-16T06:57:27;19.00;59.20
17182;DHT22;8706;48.254;16.422;2024-02-16T06:59:54;19.00;59.10
17182;DHT22;8706;48.254;16.422;2024-02-16T07:02:23;19.00;59.10
17182;DHT22;8706;48.254;16.422;2024-02-16T07:04:50;19.00;59.10
17182;DHT22;8706;48.254;16.422;2024-02-16T07:07:17;19.10;59.00
17182;DHT22;8706;48.254;16.422;2024-02-16T07:09:44;19.10;59.00
17182;DHT22;8706;48.254;16.422;2024-02-16T07:12:11;19.20;58.90
17182;DHT22;8706;48.254;16.422;2024-02-16T07:14:40;19.20;58.70
17182;DHT22;8706;48.254;16.422;2024-02-16T07:17:07;19.30;58.70
17182;DHT22;8706;48.254;16.422;2024-02-16T07:19:35;19.30;58.60
17182;DHT22;8706;48.254;16.422;2024-02-16T07:22:02;19.40;58.50
17182;DHT22;8706;48.254;16.422;2024-02-16T07:24:32;19.40;58.40
17182;DHT22;8706;48.254;16.422;2024-02-16T07:26:58;19.50;58.30
17182;DHT22;8706;48.254;16.422;2024-02-16T07:29:27;19.60;58.20
17182;DHT22;8706;48.254;16.422;2024-02-16T07:31:55;19.70;58.00
17182;DHT22;8706;48.254;16.422;2024-02-16T07:34:22;19.70;57.80
17182;DHT22;8706;48.254;16.422;2024-02-16T07:36:49;19.80;57.70
17182;DHT22;8706;48.254;16.422;2024-02-16T07:39:17;19.90;57.60
17182;DHT22;8706;48.254;16.422;2024-02-16T07:41:44;20.00;57.30
17182;DHT22;8706;48.254;16.422;2024-02-16T07:44:11;20.10;57.10
17182;DHT22;8706;48.254;16.422;2024-02-16T07:46:41;20.30;57.10
17182;DHT22;8706;48.254;16.422;2024-02-16T07:49:12;20.30;56.80
17182;DHT22;8706;48.254;16.422;2024-02-16T07:51:40;20.40;56.60
17182;DHT22;8706;48.254;16.422;2024-02-16T07:54:07;20.50;56.60
17182;DHT22;8706;48.254;16.422;2024-02-16T07:56:34;20.60;56.90
17182;DHT22;8706;48.254;16.422;2024-02-16T07:59:01;20.80;56.20
17182;DHT22;8706;48.254;16.422;2024-02-16T08:01:28;20.90;55.80
17182;DHT22;8706;48.254;16.422;2024-02-16T08:03:55;21.10;55.60
17182;DHT22;8706;48.254;16.422;2024-02-16T08:06:26;21.20;55.30
17182;DHT22;8706;48.254;16.422;2024-02-16T08:08:53;21.40;55.00
17182;DHT22;8706;48.254;16.422;2024-02-16T08:11:20;21.50;54.80
17182;DHT22;8706;48.254;16.422;2024-02-16T08:13:47;21.70;54.60
17182;DHT22;8706;48.254;16.422;2024-02-16T08:16:14;21.90;54.30
17182;DHT22;8706;48.254;16.422;2024-02-16T08:18:43;22.10;53.90
17182;DHT22;8706;48.254;16.422;2024-02-16T08:21:10;22.30;53.60
17182;DHT22;8706;48.254;16.422;2024-02-16T08:23:38;22.50;53.40
17182;DHT22;8706;48.254;16.422;2024-02-16T08:26:05;22.60;53.70
17182;DHT22;8706;48.254;16.422;2024-02-16T08:28:32;22.80;52.90
17182;DHT22;8706;48.254;16.422;2024-02-16T08:30:58;22.90;52.60
17182;DHT22;8706;48.254;16.422;2024-02-16T08:33:25;23.10;52.40
17182;DHT22;8706;48.254;16.422;2024-02-16T08:35:52;23.20;52.20
17182;DHT22;8706;48.254;16.422;2024-02-16T08:38:19;23.20;51.90
17182;DHT22;8706;48.254;16.422;2024-02-16T08:40:47;23.40;52.00
17182;DHT22;8706;48.254;16.422;2024-02-16T08:43:17;23.50;51.70
17182;DHT22;8706;48.254;16.422;2024-02-16T08:45:44;23.50;51.60
17182;DHT22;8706;48.254;16.422;2024-02-16T08:48:11;23.60;51.20
17182;DHT22;8706;48.254;16.422;2024-02-16T08:50:38;23.80;51.10
17182;DHT22;8706;48.254;16.422;2024-02-16T08:53:04;23.90;51.00
17182;DHT22;8706;48.254;16.422;2024-02-16T08:55:31;23.90;50.70
17182;DHT22;8706;48.254;16.422;2024-02-16T08:57:59;24.00;50.80
17182;DHT22;8706;48.254;16.422;2024-02-16T09:00:26;23.60;51.00
17182;DHT22;8706;48.254;16.422;2024-02-16T09:02:53;22.80;52.10
17182;DHT22;8706;48.254;16.422;2024-02-16T09:05:20;22.30;53.00
17182;DHT22;8706;48.254;16.422;2024-02-16T09:07:47;22.10;53.50
17182;DHT22;8706;48.254;16.422;2024-02-16T09:10:14;21.90;53.60
17182;DHT22;8706;48.254;16.422;2024-02-16T09:12:41;21.90;53.80
17182;DHT22;8706;48.254;16.422;2024-02-16T09:15:10;21.80;53.80
17182;DHT22;8706;48.254;16.422;2024-02-16T09:17:37;21.90;53.80
17182;DHT22;8706;48.254;16.422;2024-02-16T09:20:05;21.90;53.80
17182;DHT22;8706;48.254;16.422;2024-02-16T09:22:33;22.00;53.60
17182;DHT22;8706;48.254;16.422;2024-02-16T09:25:01;22.60;52.90
17182;DHT22;8706;48.254;16.422;2024-02-16T09:27:28;23.70;51.50
17182;DHT22;8706;48.254;16.422;2024-02-16T09:29:55;24.30;50.50
17182;DHT22;8706;48.254;16.422;2024-02-16T09:32:23;24.70;49.90
17182;DHT22;8706;48.254;16.422;2024-02-16T09:34:50;25.00;49.40
17182;DHT22;8706;48.254;16.422;2024-02-16T09:37:17;25.20;49.10
17182;DHT22;8706;48.254;16.422;2024-02-16T09:39:44;25.30;48.90
17182;DHT22;8706;48.254;16.422;2024-02-16T09:42:11;25.50;48.60
17182;DHT22;8706;48.254;16.422;2024-02-16T09:44:40;25.50;48.40
17182;DHT22;8706;48.254;16.422;2024-02-16T09:47:09;25.60;48.40
17182;DHT22;8706;48.254;16.422;2024-02-16T09:49:39;25.70;48.20
17182;DHT22;8706;48.254;16.422;2024-02-16T09:52:09;25.80;48.00
17182;DHT22;8706;48.254;16.422;2024-02-16T09:54:37;25.70;47.90
17182;DHT22;8706;48.254;16.422;2024-02-16T09:57:05;25.80;48.00
17182;DHT22;8706;48.254;16.422;2024-02-16T09:59:32;26.00;47.80
17182;DHT22;8706;48.254;16.422;2024-02-16T10:02:02;26.00;47.50
17182;DHT22;8706;48.254;16.422;2024-02-16T10:04:29;26.00;47.60
17182;DHT22;8706;48.254;16.422;2024-02-16T10:06:57;26.10;47.60
17182;DHT22;8706;48.254;16.422;2024-02-16T10:09:25;26.20;47.40
17182;DHT22;8706;48.254;16.422;2024-02-16T10:11:52;26.30;47.30
17182;DHT22;8706;48.254;16.422;2024-02-16T10:14:19;26.40;47.20
17182;DHT22;8706;48.254;16.422;2024-02-16T10:16:46;26.50;47.20
17182;DHT22;8706;48.254;16.422;2024-02-16T10:19:13;26.50;47.10
17182;DHT22;8706;48.254;16.422;2024-02-16T10:21:40;26.40;47.00
17182;DHT22;8706;48.254;16.422;2024-02-16T10:24:11;26.60;46.90
17182;DHT22;8706;48.254;16.422;2024-02-16T10:26:40;26.60;46.70
17182;DHT22;8706;48.254;16.422;2024-02-16T10:29:09;26.70;46.90
17182;DHT22;8706;48.254;16.422;2024-02-16T10:31:36;26.70;46.60
17182;DHT22;8706;48.254;16.422;2024-02-16T10:34:05;26.80;46.60
17182;DHT22;8706;48.254;16.422;2024-02-16T10:36:33;26.80;46.50
17182;DHT22;8706;48.254;16.422;2024-02-16T10:39:01;26.70;46.60
17182;DHT22;8706;48.254;16.422;2024-02-16T10:41:34;26.80;46.70
17182;DHT22;8706;48.254;16.422;2024-02-16T10:44:02;26.80;47.00
17182;DHT22;8706;48.254;16.422;2024-02-16T10:46:29;26.80;46.70
17182;DHT22;8706;48.254;16.422;2024-02-16T10:48:57;26.80;46.70
17182;DHT22;8706;48.254;16.422;2024-02-16T10:51:25;26.80;46.50
17182;DHT22;8706;48.254;16.422;2024-02-16T10:53:56;26.90;46.60
17182;DHT22;8706;48.254;16.422;2024-02-16T10:56:32;26.90;46.60
17182;DHT22;8706;48.254;16.422;2024-02-16T10:59:01;26.90;46.60
17182;DHT22;8706;48.254;16.422;2024-02-16T11:01:32;26.90;46.60
17182;DHT22;8706;48.254;16.422;2024-02-16T11:04:04;26.80;47.10
17182;DHT22;8706;48.254;16.422;2024-02-16T11:06:47;26.80;46.70
17182;DHT22;8706;48.254;16.422;2024-02-16T11:09:34;26.70;46.90
17182;DHT22;8706;48.254;16.422;2024-02-16T11:12:04;26.70;46.80
17182;DHT22;8706;48.254;16.422;2024-02-16T11:14:35;26.70;47.00
17182;DHT22;8706;48.254;16.422;2024-02-16T11:17:07;26.80;46.90
17182;DHT22;8706;48.254;16.422;2024-02-16T11:19:35;26.60;47.10
17182;DHT22;8706;48.254;16.422;2024-02-16T11:22:03;26.50;47.20
17182;DHT22;8706;48.254;16.422;2024-02-16T11:24:33;26.50;47.10
17182;DHT22;8706;48.254;16.422;2024-02-16T11:27:05;26.50;47.30
17182;DHT22;8706;48.254;16.422;2024-02-16T11:29:34;26.40;47.10
17182;DHT22;8706;48.254;16.422;2024-02-16T11:32:01;26.40;47.30
17182;DHT22;8706;48.254;16.422;2024-02-16T11:34:29;26.40;47.30
17182;DHT22;8706;48.254;16.422;2024-02-16T11:36:57;26.40;47.30
17182;DHT22;8706;48.254;16.422;2024-02-16T11:39:24;26.40;47.50
17182;DHT22;8706;48.254;16.422;2024-02-16T11:42:02;26.30;47.50
17182;DHT22;8706;48.254;16.422;2024-02-16T11:44:32;26.30;47.60
17182;DHT22;8706;48.254;16.422;2024-02-16T11:46:59;26.30;47.60
17182;DHT22;8706;48.254;16.422;2024-02-16T11:49:27;26.30;47.70
17182;DHT22;8706;48.254;16.422;2024-02-16T11:51:54;26.30;47.60
17182;DHT22;8706;48.254;16.422;2024-02-16T11:54:21;26.30;47.60
17182;DHT22;8706;48.254;16.422;2024-02-16T11:56:49;26.30;47.60
17182;DHT22;8706;48.254;16.422;2024-02-16T11:59:17;26.30;47.40
17182;DHT22;8706;48.254;16.422;2024-02-16T12:01:53;26.30;47.50
17182;DHT22;8706;48.254;16.422;2024-02-16T12:04:23;26.40;47.40
17182;DHT22;8706;48.254;16.422;2024-02-16T12:06:52;26.40;47.50
17182;DHT22;8706;48.254;16.422;2024-02-16T12:09:20;26.40;47.40
17182;DHT22;8706;48.254;16.422;2024-02-16T12:11:48;26.30;47.30
17182;DHT22;8706;48.254;16.422;2024-02-16T12:14:15;26.30;47.20
17182;DHT22;8706;48.254;16.422;2024-02-16T12:16:42;26.30;47.50
17182;DHT22;8706;48.254;16.422;2024-02-16T12:19:11;26.30;47.40
17182;DHT22;8706;48.254;16.422;2024-02-16T12:21:38;26.30;47.40
17182;DHT22;8706;48.254;16.422;2024-02-16T12:24:06;26.30;47.50
17182;DHT22;8706;48.254;16.422;2024-02-16T12:26:33;26.20;47.50
17182;DHT22;8706;48.254;16.422;2024-02-16T12:29:00;26.10;47.60
17182;DHT22;8706;48.254;16.422;2024-02-16T12:31:27;26.10;47.70
17182;DHT22;8706;48.254;16.422;2024-02-16T12:33:55;26.10;47.90
17182;DHT22;8706;48.254;16.422;2024-02-16T12:36:23;26.00;47.80
17182;DHT22;8706;48.254;16.422;2024-02-16T12:38:50;26.00;48.10
17182;DHT22;8706;48.254;16.422;2024-02-16T12:41:17;25.90;48.00
17182;DHT22;8706;48.254;16.422;2024-02-16T12:43:43;25.80;48.00
17182;DHT22;8706;48.254;16.422;2024-02-16T12:46:10;25.70;48.00
17182;DHT22;8706;48.254;16.422;2024-02-16T12:48:37;25.70;48.00
17182;DHT22;8706;48.254;16.422;2024-02-16T12:51:04;25.60;48.20
17182;DHT22;8706;48.254;16.422;2024-02-16T12:53:33;25.60;48.50
17182;DHT22;8706;48.254;16.422;2024-02-16T12:56:06;25.50;48.40
17182;DHT22;8706;48.254;16.422;2024-02-16T12:58:33;25.40;48.60
17182;DHT22;8706;48.254;16.422;2024-02-16T13:01:00;25.40;48.50
17182;DHT22;8706;48.254;16.422;2024-02-16T13:03:28;25.40;48.40
17182;DHT22;8706;48.254;16.422;2024-02-16T13:05:55;25.30;48.60
17182;DHT22;8706;48.254;16.422;2024-02-16T13:08:22;25.30;48.80
17182;DHT22;8706;48.254;16.422;2024-02-16T13:10:50;25.30;49.00
17182;DHT22;8706;48.254;16.422;2024-02-16T13:13:17;25.30;49.00
17182;DHT22;8706;48.254;16.422;2024-02-16T13:15:44;25.30;48.90
17182;DHT22;8706;48.254;16.422;2024-02-16T13:18:12;25.30;48.80
17182;DHT22;8706;48.254;16.422;2024-02-16T13:20:39;25.20;48.60
17182;DHT22;8706;48.254;16.422;2024-02-16T13:23:06;25.20;48.90
17182;DHT22;8706;48.254;16.422;2024-02-16T13:25:33;25.30;49.40
17182;DHT22;8706;48.254;16.422;2024-02-16T13:28:01;25.20;48.90
17182;DHT22;8706;48.254;16.422;2024-02-16T13:30:28;25.20;48.80
17182;DHT22;8706;48.254;16.422;2024-02-16T13:32:55;25.20;48.80
17182;DHT22;8706;48.254;16.422;2024-02-16T13:35:23;25.20;48.70
17182;DHT22;8706;48.254;16.422;2024-02-16T13:37:50;25.20;48.90
17182;DHT22;8706;48.254;16.422;2024-02-16T13:40:17;25.20;48.80
17182;DHT22;8706;48.254;16.422;2024-02-16T13:42:44;25.10;48.70
17182;DHT22;8706;48.254;16.422;2024-02-16T13:45:12;25.10;48.60
17182;DHT22;8706;48.254;16.422;2024-02-16T13:47:39;25.10;49.10
17182;DHT22;8706;48.254;16.422;2024-02-16T13:50:07;25.10;49.10
17182;DHT22;8706;48.254;16.422;2024-02-16T13:52:34;25.00;49.20
17182;DHT22;8706;48.254;16.422;2024-02-16T13:55:01;25.00;49.30
17182;DHT22;8706;48.254;16.422;2024-02-16T13:57:28;25.00;49.30
17182;DHT22;8706;48.254;16.422;2024-02-16T13:59:55;25.00;49.70
17182;DHT22;8706;48.254;16.422;2024-02-16T14:02:23;24.90;49.40
17182;DHT22;8706;48.254;16.422;2024-02-16T14:04:51;24.90;49.50
17182;DHT22;8706;48.254;16.422;2024-02-16T14:07:18;24.90;49.30
17182;DHT22;8706;48.254;16.422;2024-02-16T14:09:44;24.90;49.10
17182;DHT22;8706;48.254;16.422;2024-02-16T14:12:11;24.90;49.50
17182;DHT22;8706;48.254;16.422;2024-02-16T14:14:38;24.80;49.60
17182;DHT22;8706;48.254;16.422;2024-02-16T14:17:05;24.80;49.50
17182;DHT22;8706;48.254;16.422;2024-02-16T14:19:33;24.80;49.20
17182;DHT22;8706;48.254;16.422;2024-02-16T14:22:03;24.80;49.40
17182;DHT22;8706;48.254;16.422;2024-02-16T14:24:32;24.70;49.70
17182;DHT22;8706;48.254;16.422;2024-02-16T14:26:59;24.70;49.50
17182;DHT22;8706;48.254;16.422;2024-02-16T14:29:26;24.60;49.90
17182;DHT22;8706;48.254;16.422;2024-02-16T14:31:54;24.60;49.90
17182;DHT22;8706;48.254;16.422;2024-02-16T14:34:21;24.60;50.00
17182;DHT22;8706;48.254;16.422;2024-02-16T14:36:49;24.50;49.80
17182;DHT22;8706;48.254;16.422;2024-02-16T14:39:16;24.50;50.00
17182;DHT22;8706;48.254;16.422;2024-02-16T14:41:43;24.40;50.00
17182;DHT22;8706;48.254;16.422;2024-02-16T14:44:10;24.40;50.30
17182;DHT22;8706;48.254;16.422;2024-02-16T14:46:37;24.40;50.50
17182;DHT22;8706;48.254;16.422;2024-02-16T14:49:04;24.40;50.60
17182;DHT22;8706;48.254;16.422;2024-02-16T14:51:34;24.30;51.30
17182;DHT22;8706;48.254;16.422;2024-02-16T14:54:02;24.30;50.70
17182;DHT22;8706;48.254;16.422;2024-02-16T14:56:29;24.20;50.40
17182;DHT22;8706;48.254;16.422;2024-02-16T14:58:56;24.20;50.50
17182;DHT22;8706;48.254;16.422;2024-02-16T15:01:23;24.20;50.40
17182;DHT22;8706;48.254;16.422;2024-02-16T15:03:50;24.10;50.80
17182;DHT22;8706;48.254;16.422;2024-02-16T15:06:17;24.10;50.70
17182;DHT22;8706;48.254;16.422;2024-02-16T15:08:43;24.00;50.40
17182;DHT22;8706;48.254;16.422;2024-02-16T15:11:12;24.00;50.50
17182;DHT22;8706;48.254;16.422;2024-02-16T15:13:39;24.00;50.70
17182;DHT22;8706;48.254;16.422;2024-02-16T15:16:08;23.90;50.60
17182;DHT22;8706;48.254;16.422;2024-02-16T15:18:35;23.90;50.70
17182;DHT22;8706;48.254;16.422;2024-02-16T15:21:02;23.90;50.50
17182;DHT22;8706;48.254;16.422;2024-02-16T15:23:29;23.80;50.60
17182;DHT22;8706;48.254;16.422;2024-02-16T15:25:56;23.80;51.10
17182;DHT22;8706;48.254;16.422;2024-02-16T15:28:24;23.70;50.90
17182;DHT22;8706;48.254;16.422;2024-02-16T15:30:51;23.70;51.80
17182;DHT22;8706;48.254;16.422;2024-02-16T15:33:18;23.60;51.40